createdAt,value
2019-03-31T00:01:07.517Z,95026.22
2019-03-31T00:03:28.726Z,95028.09
2019-03-31T00:05:58.619Z,95024.53
2019-03-31T00:08:28.506Z,95021.81
2019-03-31T00:11:00.655Z,95024.41
2019-03-31T00:13:30.006Z,95018.28
2019-03-31T00:16:00.181Z,95014.00
2019-03-31T00:18:30.050Z,95014.88
2019-03-31T00:20:59.944Z,95011.66
2019-03-31T00:23:29.798Z,95018.12
2019-03-31T00:25:59.698Z,95013.84
2019-03-31T00:28:29.603Z,95006.27
2019-03-31T00:30:59.506Z,95005.12
2019-03-31T00:33:29.395Z,95001.80
2019-03-31T00:35:59.287Z,95001.98
2019-03-31T00:38:29.159Z,95001.24
2019-03-31T00:40:59.073Z,95000.45
2019-03-31T00:43:29.948Z,94996.82
2019-03-31T00:45:59.841Z,94991.77
2019-03-31T00:48:29.879Z,94991.56
2019-03-31T00:50:59.771Z,94992.36
2019-03-31T00:53:29.655Z,94990.70
2019-03-31T00:55:59.586Z,94986.44
2019-03-31T00:58:29.482Z,94985.83
2019-03-31T01:01:19.750Z,94977.09
2019-03-31T01:03:49.856Z,94987.13
2019-03-31T01:06:19.912Z,94977.30
2019-03-31T01:08:49.816Z,94974.98
2019-03-31T01:11:25.841Z,94972.15
2019-03-31T01:13:56.028Z,94971.02
2019-03-31T01:16:27.257Z,94968.87
2019-03-31T01:18:57.144Z,94966.73
2019-03-31T01:21:27.054Z,94969.56
2019-03-31T01:23:57.026Z,94965.25
2019-03-31T01:26:26.988Z,94966.44
2019-03-31T01:28:57.070Z,94965.06
2019-03-31T01:31:28.469Z,94967.35
2019-03-31T01:33:58.699Z,94964.98
2019-03-31T01:36:28.699Z,94964.71
2019-03-31T01:38:58.632Z,94969.49
2019-03-31T01:41:28.547Z,94966.27
2019-03-31T01:43:58.553Z,94964.19
2019-03-31T01:46:29.160Z,94969.71
2019-03-31T01:48:59.032Z,94970.48
2019-03-31T01:51:28.931Z,94962.59
2019-03-31T01:53:58.826Z,94962.59
2019-03-31T01:56:28.739Z,94959.88
2019-03-31T01:58:59.423Z,94960.21
2019-03-31T02:01:29.375Z,94954.19
2019-03-31T02:03:59.516Z,94961.87
2019-03-31T02:06:29.419Z,94956.16
2019-03-31T02:08:59.347Z,94954.92
2019-03-31T02:11:29.243Z,94949.09
2019-03-31T02:13:59.194Z,94945.80
2019-03-31T02:16:29.104Z,94947.42
2019-03-31T02:18:59.001Z,94947.81
2019-03-31T02:21:28.903Z,94945.56
2019-03-31T02:23:58.796Z,94944.28
2019-03-31T02:26:28.708Z,94938.38
2019-03-31T02:28:58.642Z,94936.08
2019-03-31T02:31:28.620Z,94939.61
2019-03-31T02:33:58.553Z,94940.83
2019-03-31T02:36:28.441Z,94938.06
2019-03-31T02:38:58.339Z,94938.38
2019-03-31T02:41:28.337Z,94933.31
2019-03-31T02:43:58.250Z,94932.06
2019-03-31T02:46:28.191Z,94928.15
2019-03-31T02:48:58.073Z,94928.12
2019-03-31T02:51:28.000Z,94929.62
2019-03-31T02:53:58.321Z,94933.72
2019-03-31T02:56:28.439Z,94932.77
2019-03-31T02:59:00.818Z,94937.79
2019-03-31T03:01:32.570Z,94933.70
2019-03-31T03:04:07.772Z,94926.31
2019-03-31T03:06:36.959Z,94932.61
2019-03-31T03:09:08.116Z,94933.01
2019-03-31T03:11:38.910Z,94934.50
2019-03-31T03:14:11.285Z,94934.72
2019-03-31T03:16:41.263Z,94932.87
2019-03-31T03:19:11.256Z,94937.09
2019-03-31T03:21:41.181Z,94933.69
2019-03-31T03:24:11.133Z,94939.51
2019-03-31T03:26:41.031Z,94938.03
2019-03-31T03:29:10.902Z,94940.22
2019-03-31T03:31:40.813Z,94939.92
2019-03-31T03:34:10.718Z,94940.34
2019-03-31T03:36:43.182Z,94937.88
2019-03-31T03:39:12.238Z,94941.19
2019-03-31T03:41:42.172Z,94937.70
2019-03-31T03:44:12.093Z,94944.15
2019-03-31T03:46:42.033Z,94942.23
2019-03-31T03:49:12.177Z,94938.68
2019-03-31T03:51:42.355Z,94937.38
2019-03-31T03:54:12.251Z,94935.64
2019-03-31T03:56:42.155Z,94940.28
2019-03-31T03:59:12.033Z,94936.23
2019-03-31T04:01:41.913Z,94937.39
2019-03-31T04:04:11.873Z,94940.17
2019-03-31T04:06:41.724Z,94938.77
2019-03-31T04:09:11.621Z,94940.13
2019-03-31T04:11:41.486Z,94938.80
2019-03-31T04:14:11.396Z,94934.64
2019-03-31T04:16:41.259Z,94937.37
2019-03-31T04:19:11.158Z,94932.97
2019-03-31T04:21:41.092Z,94936.27
2019-03-31T04:24:10.988Z,94934.05
2019-03-31T04:26:40.881Z,94928.71
2019-03-31T04:29:10.769Z,94927.48
2019-03-31T04:31:40.710Z,94926.72
2019-03-31T04:34:10.627Z,94927.59
2019-03-31T04:36:40.506Z,94932.31
2019-03-31T04:39:10.407Z,94932.58
2019-03-31T04:41:40.361Z,94931.29
2019-03-31T04:44:10.248Z,94928.55
2019-03-31T04:46:40.194Z,94931.02
2019-03-31T04:49:10.068Z,94926.40
2019-03-31T04:51:40.010Z,94924.69
2019-03-31T04:54:09.933Z,94930.70
2019-03-31T04:56:39.845Z,94927.64
2019-03-31T04:59:09.762Z,94929.97
2019-03-31T05:01:39.662Z,94928.12
2019-03-31T05:04:09.554Z,94928.90
2019-03-31T05:06:39.504Z,94930.24
2019-03-31T05:09:09.340Z,94933.73
2019-03-31T05:11:39.206Z,94932.34
2019-03-31T05:14:09.151Z,94933.73
2019-03-31T05:16:39.053Z,94926.27
2019-03-31T05:19:08.989Z,94922.95
2019-03-31T05:21:38.909Z,94923.93
2019-03-31T05:24:08.942Z,94920.59
2019-03-31T05:26:38.905Z,94921.12
2019-03-31T05:29:08.795Z,94923.41
2019-03-31T05:31:38.746Z,94924.44
2019-03-31T05:34:19.033Z,94923.85
2019-03-31T05:36:40.265Z,94923.73
2019-03-31T05:39:10.168Z,94921.20
2019-03-31T05:41:40.119Z,94917.81
2019-03-31T05:44:10.032Z,94911.64
2019-03-31T05:46:39.924Z,94907.58
2019-03-31T05:49:09.811Z,94908.77
2019-03-31T05:51:39.785Z,94900.73
2019-03-31T05:54:09.702Z,94900.49
2019-03-31T05:56:39.657Z,94898.75
2019-03-31T05:59:09.563Z,94900.44
2019-03-31T06:01:39.507Z,94897.06
2019-03-31T06:04:09.398Z,94900.87
2019-03-31T06:06:39.263Z,94893.02
2019-03-31T06:09:09.218Z,94900.27
2019-03-31T06:11:39.863Z,94900.39
2019-03-31T06:14:09.848Z,94905.84
2019-03-31T06:16:39.768Z,94907.22
2019-03-31T06:19:09.671Z,94903.47
2019-03-31T06:21:39.590Z,94901.37
2019-03-31T06:24:09.550Z,94904.06
2019-03-31T06:26:39.541Z,94897.30
2019-03-31T06:29:09.549Z,94893.55
2019-03-31T06:31:39.461Z,94894.47
2019-03-31T06:34:09.379Z,94896.53
2019-03-31T06:36:39.288Z,94899.06
2019-03-31T06:39:09.187Z,94896.11
2019-03-31T06:41:39.121Z,94895.23
2019-03-31T06:44:09.030Z,94891.25
2019-03-31T06:46:38.998Z,94887.45
2019-03-31T06:49:09.001Z,94890.64
2019-03-31T06:51:38.889Z,94887.16
2019-03-31T06:54:08.820Z,94884.59
2019-03-31T06:56:38.686Z,94885.14
2019-03-31T06:59:08.592Z,94883.02
2019-03-31T07:01:38.518Z,94889.60
2019-03-31T07:04:08.417Z,94885.48
2019-03-31T07:06:38.399Z,94886.66
2019-03-31T07:09:08.399Z,94883.77
2019-03-31T07:11:38.363Z,94884.60
2019-03-31T07:14:08.365Z,94875.88
2019-03-31T07:16:38.428Z,94876.84
2019-03-31T07:19:08.336Z,94872.63
2019-03-31T07:21:38.273Z,94879.12
2019-03-31T07:24:08.311Z,94870.84
2019-03-31T07:26:38.245Z,94874.73
2019-03-31T07:29:08.152Z,94877.34
2019-03-31T07:31:38.292Z,94869.03
2019-03-31T07:34:08.306Z,94870.16
2019-03-31T07:36:38.388Z,94867.53
2019-03-31T07:39:08.705Z,94869.80
2019-03-31T07:41:38.816Z,94869.75
2019-03-31T07:44:08.738Z,94867.98
2019-03-31T07:46:38.643Z,94867.60
2019-03-31T07:49:08.580Z,94868.39
2019-03-31T07:51:38.560Z,94864.91
2019-03-31T07:54:08.449Z,94860.86
2019-03-31T07:56:38.397Z,94856.90
2019-03-31T07:59:08.423Z,94856.66
2019-03-31T08:01:38.352Z,94852.38
2019-03-31T08:04:08.404Z,94854.63
2019-03-31T08:06:38.345Z,94850.31
2019-03-31T08:09:08.764Z,94848.14
2019-03-31T08:11:38.654Z,94840.80
2019-03-31T08:14:08.542Z,94846.58
2019-03-31T08:16:38.421Z,94839.32
2019-03-31T08:19:08.335Z,94838.09
2019-03-31T08:21:38.225Z,94828.80
2019-03-31T08:24:08.123Z,94833.69
2019-03-31T08:26:38.029Z,94831.86
2019-03-31T08:29:07.953Z,94824.59
2019-03-31T08:31:37.875Z,94821.83
2019-03-31T08:34:07.772Z,94820.25
2019-03-31T08:36:37.652Z,94811.81
2019-03-31T08:39:09.817Z,94809.41
2019-03-31T08:41:39.720Z,94803.55
2019-03-31T08:44:09.613Z,94804.91
2019-03-31T08:46:39.541Z,94802.30
2019-03-31T08:49:09.450Z,94796.80
2019-03-31T08:51:39.380Z,94793.22
2019-03-31T08:54:09.299Z,94791.86
2019-03-31T08:56:39.199Z,94795.18
2019-03-31T08:59:09.106Z,94786.19
2019-03-31T09:01:38.981Z,94778.26
2019-03-31T09:04:08.898Z,94779.24
2019-03-31T09:06:38.851Z,94781.44
2019-03-31T09:09:09.731Z,94782.84
2019-03-31T09:11:39.635Z,94770.05
2019-03-31T09:14:09.601Z,94766.17
2019-03-31T09:16:39.497Z,94770.83
2019-03-31T09:19:09.405Z,94768.22
2019-03-31T09:21:39.317Z,94765.23
2019-03-31T09:24:09.193Z,94766.73
2019-03-31T09:26:39.061Z,94763.05
2019-03-31T09:29:08.970Z,94753.98
2019-03-31T09:31:38.868Z,94752.55
2019-03-31T09:34:08.757Z,94752.13
2019-03-31T09:36:38.650Z,94746.66
2019-03-31T09:39:08.580Z,94740.72
2019-03-31T09:41:38.563Z,94736.82
2019-03-31T09:44:08.516Z,94726.23
2019-03-31T09:46:38.465Z,94726.23
2019-03-31T09:49:08.334Z,94721.91
2019-03-31T09:51:38.233Z,94719.87
2019-03-31T09:54:08.120Z,94717.99
2019-03-31T09:56:37.999Z,94717.99
2019-03-31T09:59:07.912Z,94714.47
2019-03-31T10:01:37.902Z,94713.39
2019-03-31T10:04:07.832Z,94709.09
2019-03-31T10:06:37.851Z,94706.27
2019-03-31T10:09:08.622Z,94706.27
2019-03-31T10:11:38.585Z,94708.61
2019-03-31T10:14:08.445Z,94706.20
2019-03-31T10:16:38.343Z,94699.16
2019-03-31T10:19:08.227Z,94699.84
2019-03-31T10:21:38.084Z,94700.12
2019-03-31T10:24:07.980Z,94688.81
2019-03-31T10:26:37.870Z,94689.06
2019-03-31T10:29:07.808Z,94687.33
2019-03-31T10:31:37.680Z,94682.57
2019-03-31T10:34:07.542Z,94682.80
2019-03-31T10:36:44.471Z,94674.74
2019-03-31T10:39:10.103Z,94666.23
2019-03-31T10:41:40.232Z,94667.23
2019-03-31T10:44:10.157Z,94668.55
2019-03-31T10:46:40.057Z,94666.45
2019-03-31T10:49:09.949Z,94663.04
2019-03-31T10:51:39.882Z,94660.89
2019-03-31T10:54:09.830Z,94662.00
2019-03-31T10:56:39.737Z,94655.97
2019-03-31T10:59:09.649Z,94657.20
2019-03-31T11:01:39.537Z,94653.48
2019-03-31T11:04:09.439Z,94653.02
2019-03-31T11:06:39.310Z,94647.09
2019-03-31T11:09:09.823Z,94640.35
2019-03-31T11:11:39.707Z,94639.92
2019-03-31T11:14:09.617Z,94634.52
2019-03-31T11:16:39.515Z,94633.78
2019-03-31T11:19:09.467Z,94634.66
2019-03-31T11:21:57.232Z,94625.27
2019-03-31T11:24:27.155Z,94628.33
2019-03-31T11:26:57.071Z,94618.88
2019-03-31T11:29:26.989Z,94619.80
2019-03-31T11:31:56.900Z,94611.26
2019-03-31T11:34:26.807Z,94612.14
2019-03-31T11:36:56.746Z,94602.38
2019-03-31T11:39:26.655Z,94607.99
2019-03-31T11:41:56.629Z,94603.48
2019-03-31T11:44:27.781Z,94605.59
2019-03-31T11:46:57.927Z,94598.36
2019-03-31T11:49:27.817Z,94604.63
2019-03-31T11:51:57.767Z,94592.17
2019-03-31T11:54:27.730Z,94588.66
2019-03-31T11:56:57.655Z,94583.19
2019-03-31T11:59:27.597Z,94578.78
2019-03-31T12:01:57.544Z,94573.23
2019-03-31T12:04:27.478Z,94564.98
2019-03-31T12:06:58.207Z,94567.75
2019-03-31T12:09:28.140Z,94567.50
2019-03-31T12:11:58.087Z,94563.15
2019-03-31T12:14:28.002Z,94570.08
2019-03-31T12:16:57.936Z,94563.60
2019-03-31T12:19:28.875Z,94555.95
2019-03-31T12:21:58.812Z,94553.84
2019-03-31T12:24:28.894Z,94557.10
2019-03-31T12:26:58.859Z,94547.27
2019-03-31T12:29:28.939Z,94549.66
2019-03-31T12:31:59.049Z,94549.66
2019-03-31T12:34:28.991Z,94547.52
2019-03-31T12:36:58.916Z,94548.33
2019-03-31T12:39:28.943Z,94537.94
2019-03-31T12:41:58.905Z,94543.23
2019-03-31T12:44:28.805Z,94533.16
2019-03-31T12:46:58.858Z,94535.80
2019-03-31T12:49:28.803Z,94532.80
2019-03-31T12:51:58.785Z,94532.03
2019-03-31T12:54:28.701Z,94526.45
2019-03-31T12:56:58.656Z,94523.57
2019-03-31T12:59:28.591Z,94523.54
2019-03-31T13:01:58.487Z,94524.33
2019-03-31T13:04:28.396Z,94520.27
2019-03-31T13:06:58.328Z,94511.23
2019-03-31T13:09:28.231Z,94506.20
2019-03-31T13:11:58.179Z,94493.25
2019-03-31T13:14:28.157Z,94498.55
2019-03-31T13:17:01.353Z,94500.91
2019-03-31T13:19:29.742Z,94494.19
2019-03-31T13:21:59.694Z,94494.95
2019-03-31T13:24:29.593Z,94499.37
2019-03-31T13:26:59.818Z,94500.56
2019-03-31T13:29:29.733Z,94501.27
2019-03-31T13:31:59.649Z,94488.77
2019-03-31T13:34:32.457Z,94483.28
2019-03-31T13:37:02.548Z,94480.35
2019-03-31T13:39:32.694Z,94480.81
2019-03-31T13:42:02.737Z,94476.97
2019-03-31T13:44:32.665Z,94474.45
2019-03-31T13:47:02.601Z,94476.73
2019-03-31T13:49:32.600Z,94475.06
2019-03-31T13:52:02.550Z,94475.22
2019-03-31T13:54:32.464Z,94467.80
2019-03-31T13:57:06.305Z,94465.49
2019-03-31T13:59:36.409Z,94463.58
2019-03-31T14:02:06.356Z,94463.72
2019-03-31T14:04:50.690Z,94461.30
2019-03-31T14:07:07.984Z,94463.55
2019-03-31T14:09:37.954Z,94456.51
2019-03-31T14:12:07.875Z,94448.22
2019-03-31T14:14:37.873Z,94446.63
2019-03-31T14:17:07.861Z,94443.25
2019-03-31T14:19:37.768Z,94443.27
2019-03-31T14:22:07.708Z,94439.23
2019-03-31T14:24:37.653Z,94444.48
2019-03-31T14:27:07.590Z,94442.11
2019-03-31T14:29:44.578Z,94446.05
2019-03-31T14:32:14.537Z,94430.67
2019-03-31T14:34:44.486Z,94440.48
2019-03-31T14:37:14.388Z,94438.02
2019-03-31T14:39:44.430Z,94444.37
2019-03-31T14:42:14.325Z,94429.81
2019-03-31T14:44:44.273Z,94439.02
2019-03-31T14:47:14.233Z,94433.92
2019-03-31T14:49:44.125Z,94433.64
2019-03-31T14:52:26.671Z,94436.87
2019-03-31T14:54:45.724Z,94440.58
2019-03-31T14:57:15.633Z,94439.25
2019-03-31T14:59:45.564Z,94438.46
2019-03-31T15:02:15.479Z,94429.36
2019-03-31T15:04:45.428Z,94433.93
2019-03-31T15:07:15.317Z,94426.50
2019-03-31T15:09:45.318Z,94433.45
2019-03-31T15:12:15.234Z,94427.03
2019-03-31T15:14:45.138Z,94426.78
2019-03-31T15:17:15.067Z,94425.22
2019-03-31T15:19:44.980Z,94428.64
2019-03-31T15:22:14.940Z,94427.58
2019-03-31T15:24:44.890Z,94421.48
2019-03-31T15:27:14.774Z,94425.73
2019-03-31T15:29:44.765Z,94425.48
2019-03-31T15:32:14.649Z,94429.17
2019-03-31T15:34:44.562Z,94431.22
2019-03-31T15:37:14.537Z,94433.88
2019-03-31T15:39:44.643Z,94431.17
2019-03-31T15:42:14.595Z,94431.68
2019-03-31T15:44:44.523Z,94434.74
2019-03-31T15:47:14.433Z,94437.30
2019-03-31T15:49:44.366Z,94437.39
2019-03-31T15:52:14.271Z,94433.02
2019-03-31T15:54:44.249Z,94441.17
2019-03-31T15:57:14.161Z,94442.80
2019-03-31T15:59:51.208Z,94448.02
2019-03-31T16:02:22.678Z,94447.64
2019-03-31T16:04:52.565Z,94450.05
2019-03-31T16:07:22.487Z,94450.83
2019-03-31T16:09:51.896Z,94452.75
2019-03-31T16:12:21.259Z,94448.82
2019-03-31T16:14:50.652Z,94453.55
2019-03-31T16:17:20.039Z,94455.84
2019-03-31T16:19:49.403Z,94445.89
2019-03-31T16:22:18.778Z,94448.31
2019-03-31T16:24:50.148Z,94449.90
2019-03-31T16:27:19.506Z,94450.15
2019-03-31T16:29:48.893Z,94445.97
2019-03-31T16:32:18.263Z,94452.61
2019-03-31T16:34:47.656Z,94455.28
2019-03-31T16:37:17.120Z,94454.13
2019-03-31T16:39:46.469Z,94459.05
2019-03-31T16:42:15.886Z,94455.27
2019-03-31T16:44:57.507Z,94446.50
2019-03-31T16:47:16.405Z,94460.55
2019-03-31T16:49:45.774Z,94461.37
2019-03-31T16:52:15.294Z,94463.66
2019-03-31T16:54:44.689Z,94463.29
2019-03-31T16:57:14.063Z,94463.58
2019-03-31T16:59:43.411Z,94461.02
2019-03-31T17:02:12.865Z,94469.73
2019-03-31T17:04:42.268Z,94471.86
2019-03-31T17:07:11.687Z,94472.16
2019-03-31T17:09:51.262Z,94477.91
2019-03-31T17:12:13.105Z,94481.35
2019-03-31T17:14:42.524Z,94482.33
2019-03-31T17:17:11.886Z,94482.33
2019-03-31T17:19:41.330Z,94490.89
2019-03-31T17:22:10.737Z,94495.34
2019-03-31T17:24:40.106Z,94495.34
2019-03-31T17:27:09.587Z,94502.20
2019-03-31T17:29:39.880Z,94503.45
2019-03-31T17:32:09.387Z,94502.86
2019-03-31T17:34:38.751Z,94504.36
2019-03-31T17:37:08.172Z,94503.89
2019-03-31T17:39:37.982Z,94505.64
2019-03-31T17:42:07.394Z,94509.05
2019-03-31T17:44:36.786Z,94510.67
2019-03-31T17:47:06.203Z,94519.55
2019-03-31T17:49:35.709Z,94516.83
2019-03-31T17:52:05.100Z,94520.87
2019-03-31T17:54:34.518Z,94524.58
2019-03-31T17:57:03.987Z,94528.52
2019-03-31T17:59:33.568Z,94524.58
2019-03-31T18:02:02.930Z,94530.13
2019-03-31T18:04:32.359Z,94536.36
2019-03-31T18:07:01.834Z,94533.03
2019-03-31T18:09:31.238Z,94531.52
2019-03-31T18:12:04.142Z,94538.92
2019-03-31T18:14:33.534Z,94542.95
2019-03-31T18:17:03.019Z,94541.84
2019-03-31T18:19:33.456Z,94542.52
2019-03-31T18:22:15.911Z,94540.70
2019-03-31T18:24:34.400Z,94540.70
2019-03-31T18:27:03.770Z,94537.46
2019-03-31T18:29:33.300Z,94536.77
2019-03-31T18:32:03.802Z,94541.05
2019-03-31T18:34:33.215Z,94547.25
2019-03-31T18:37:06.767Z,94552.31
2019-03-31T18:39:36.310Z,94555.42
2019-03-31T18:42:05.817Z,94560.03
2019-03-31T18:44:35.232Z,94563.16
2019-03-31T18:47:04.715Z,94564.83
2019-03-31T18:49:35.855Z,94562.05
2019-03-31T18:52:05.322Z,94564.37
2019-03-31T18:54:59.889Z,94567.11
2019-03-31T18:57:47.339Z,94565.10
2019-03-31T19:00:34.619Z,94562.62
2019-03-31T19:03:21.857Z,94566.41
2019-03-31T19:06:28.609Z,94558.94
2019-03-31T19:09:17.719Z,94559.37
2019-03-31T19:12:05.525Z,94560.75
2019-03-31T19:14:52.466Z,94556.26
2019-03-31T19:17:41.028Z,94557.98
2019-03-31T19:20:41.629Z,94553.70
2019-03-31T19:23:28.902Z,94548.76
2019-03-31T19:26:47.406Z,94552.34
2019-03-31T19:29:12.117Z,94556.92
2019-03-31T19:32:03.501Z,94552.52
2019-03-31T19:34:50.529Z,94554.52
2019-03-31T19:37:29.157Z,94557.12
2019-03-31T19:40:17.844Z,94557.30
2019-03-31T19:43:15.206Z,94561.13
2019-03-31T19:46:06.707Z,94563.62
2019-03-31T19:48:52.922Z,94562.75
2019-03-31T19:51:41.222Z,94563.83
2019-03-31T19:54:35.785Z,94557.95
2019-03-31T19:57:33.558Z,94563.02
2019-03-31T20:00:24.696Z,94561.83
2019-03-31T20:03:21.939Z,94565.66
2019-03-31T20:06:13.258Z,94563.09
2019-03-31T20:08:59.807Z,94566.50
2019-03-31T20:11:34.879Z,94568.49
2019-03-31T20:14:26.305Z,94572.00
2019-03-31T20:17:05.395Z,94573.08
2019-03-31T20:19:56.723Z,94572.45
2019-03-31T20:22:51.096Z,94576.48
2019-03-31T20:25:39.279Z,94582.53
2019-03-31T20:28:24.126Z,94577.34
2019-03-31T20:31:00.164Z,94574.70
2019-03-31T20:33:44.779Z,94574.36
2019-03-31T20:36:50.996Z,94571.67
2019-03-31T20:39:56.004Z,94570.19
2019-03-31T20:42:23.419Z,94569.13
2019-03-31T20:44:52.816Z,94565.80
2019-03-31T20:47:22.210Z,94566.02
2019-03-31T20:49:51.805Z,94559.89
2019-03-31T20:52:21.203Z,94559.78
2019-03-31T20:54:50.583Z,94561.08
2019-03-31T20:57:19.990Z,94557.12
2019-03-31T20:59:49.421Z,94555.81
2019-03-31T21:02:18.957Z,94560.28
2019-03-31T21:04:48.499Z,94557.80
2019-03-31T21:07:17.977Z,94554.05
2019-03-31T21:09:47.413Z,94564.10
2019-03-31T21:12:16.833Z,94561.96
2019-03-31T21:14:46.251Z,94560.77
2019-03-31T21:17:15.835Z,94561.13
2019-03-31T21:19:45.233Z,94561.14
2019-03-31T21:22:14.647Z,94562.85
2019-03-31T21:24:44.070Z,94564.06
2019-03-31T21:27:13.526Z,94565.08
2019-03-31T21:29:42.905Z,94564.15
2019-03-31T21:32:12.348Z,94565.41
2019-03-31T21:34:41.697Z,94564.63
2019-03-31T21:37:11.055Z,94563.50
2019-03-31T21:39:40.385Z,94561.16
2019-03-31T21:42:09.773Z,94562.75
2019-03-31T21:44:39.148Z,94564.77
2019-03-31T21:47:08.570Z,94564.47
2019-03-31T21:49:37.911Z,94563.34
2019-03-31T21:52:07.267Z,94565.64
2019-03-31T21:54:36.859Z,94567.30
2019-03-31T21:57:06.293Z,94572.19
2019-03-31T21:59:35.897Z,94568.81
2019-03-31T22:02:05.304Z,94569.67
2019-03-31T22:04:34.649Z,94569.80
2019-03-31T22:07:04.122Z,94565.55
2019-03-31T22:09:33.436Z,94568.32
2019-03-31T22:12:02.809Z,94568.59
2019-03-31T22:14:32.174Z,94564.23
2019-03-31T22:17:01.544Z,94561.80
2019-03-31T22:19:30.885Z,94555.34
2019-03-31T22:22:00.289Z,94553.30
2019-03-31T22:24:29.650Z,94550.33
2019-03-31T22:26:59.002Z,94545.48
2019-03-31T22:29:28.364Z,94552.36
2019-03-31T22:31:57.713Z,94551.17
2019-03-31T22:34:27.055Z,94554.00
2019-03-31T22:36:56.425Z,94554.86
2019-03-31T22:39:28.074Z,94557.97
2019-03-31T22:41:57.460Z,94548.70
2019-03-31T22:44:26.839Z,94547.07
2019-03-31T22:46:56.189Z,94548.56
2019-03-31T22:49:25.570Z,94546.72
2019-03-31T22:51:56.603Z,94548.08
2019-03-31T22:54:26.034Z,94553.28
2019-03-31T22:56:55.376Z,94546.98
2019-03-31T22:59:24.712Z,94548.10
2019-03-31T23:01:54.057Z,94541.81
2019-03-31T23:04:23.382Z,94541.98
2019-03-31T23:06:52.762Z,94541.52
2019-03-31T23:09:22.107Z,94546.21
2019-03-31T23:11:51.528Z,94546.55
2019-03-31T23:14:20.937Z,94547.37
2019-03-31T23:16:50.358Z,94547.03
2019-03-31T23:19:19.770Z,94546.22
2019-03-31T23:21:49.093Z,94544.59
2019-03-31T23:24:18.427Z,94545.23
2019-03-31T23:26:47.761Z,94543.28
2019-03-31T23:29:17.098Z,94540.00
2019-03-31T23:31:46.468Z,94532.23
2019-03-31T23:34:15.859Z,94536.59
2019-03-31T23:36:45.263Z,94535.42
2019-03-31T23:39:14.613Z,94529.58
2019-03-31T23:41:43.966Z,94530.54
2019-03-31T23:44:13.401Z,94522.64
2019-03-31T23:46:42.883Z,94525.02
2019-03-31T23:49:12.276Z,94517.08
2019-03-31T23:51:41.591Z,94520.95
2019-03-31T23:54:10.925Z,94524.57
2019-03-31T23:56:40.265Z,94516.36
2019-03-31T23:59:09.620Z,94522.67
